Terminal Aerodrome Forecast
Issued by NWS Amarillo, TX

Home | Current Version | Previous Version | Text Only | Print | Product List | Glossary On
Versions: 1 2 3 4 5 6 7 8 9 10 11 12 13 14 15 16 17 18 19
000
FTUS44 KAMA 250500
TAFGUY
TAF
KGUY 250520Z 2506/2606 22005KT P6SM SKC
     FM251800 18013G19KT P6SM FEW300
     FM260000 18010KT P6SM FEW300=

USA.gov is the U.S. government's official web portal to all federal, state and local government web resources and services.